Time;durP1;ratioP1;P1;durP2;ratioP2;P2;SDS_P1;SDS_P2;PMS_P1;PMS_P2;Temp;Humidity;BMP_temperature;BMP_pressure;BME280_temperature;BME280_humidity;BME280_pressure;Samples;Min_cycle;Max_cycle;Signal;HPM_P1;HPM_P2
2022/01/17 00:02:08;;;;;;;25.60;10.00;;;;;;;5.23;90.57;101810.22;6061804;28;20052;-74
2022/01/17 00:05:05;;;;;;;22.27;8.07;;;;;;;5.22;90.66;101803.25;6072623;28;20272;-74
2022/01/17 00:08:00;;;;;;;24.52;8.35;;;;;;;5.23;90.61;101800.56;6074796;28;20150;-74
2022/01/17 00:10:56;;;;;;;24.80;8.37;;;;;;;5.23;91.50;101797.06;6062398;28;20038;-74
2022/01/17 00:13:51;;;;;;;21.98;8.30;;;;;;;5.22;91.00;101819.03;6069259;28;20040;-75
2022/01/17 00:16:53;;;;;;;27.77;9.48;;;;;;;5.24;90.82;101819.81;6073869;28;20041;-74
2022/01/17 00:19:53;;;;;;;23.88;8.40;;;;;;;5.22;90.85;101811.13;6069006;28;20090;-74
2022/01/17 00:22:49;;;;;;;23.45;8.32;;;;;;;5.23;91.02;101839.13;6073557;28;20037;-74
2022/01/17 00:25:44;;;;;;;24.05;7.72;;;;;;;5.23;91.20;101849.66;6064220;28;20095;-74
2022/01/17 00:28:40;;;;;;;25.67;8.50;;;;;;;5.25;91.12;101858.31;6065198;28;20061;-73
2022/01/17 00:31:35;;;;;;;16.37;6.40;;;;;;;5.28;90.14;101858.13;6074096;28;20037;-74
2022/01/17 00:34:30;;;;;;;20.80;7.07;;;;;;;5.35;90.54;101855.09;6073242;28;20037;-74
2022/01/17 00:37:26;;;;;;;11.73;5.93;;;;;;;5.38;90.25;101851.47;6073880;28;20400;-74
2022/01/17 00:40:22;;;;;;;15.60;5.73;;;;;;;5.37;89.72;101844.50;6073406;28;20044;-74
2022/01/17 00:43:18;;;;;;;14.15;6.68;;;;;;;5.35;90.28;101827.97;6062417;28;20056;-74
2022/01/17 00:46:13;;;;;;;19.20;6.13;;;;;;;5.33;89.95;101835.06;6071802;28;20034;-74
2022/01/17 00:49:08;;;;;;;20.95;5.60;;;;;;;5.38;89.52;101838.31;6073618;28;20037;-74
2022/01/17 00:52:04;;;;;;;10.53;5.03;;;;;;;5.39;89.29;101829.47;6072563;28;20041;-74
2022/01/17 00:55:00;;;;;;;13.30;5.03;;;;;;;5.39;88.40;101818.94;6068146;28;20484;-74
2022/01/17 00:57:55;;;;;;;11.88;4.18;;;;;;;5.40;88.67;101820.66;6074077;28;20035;-75
2022/01/17 01:00:51;;;;;;;13.20;3.67;;;;;;;5.41;88.01;101814.44;6069396;28;20072;-74
2022/01/17 01:03:46;;;;;;;11.97;2.93;;;;;;;5.40;87.97;101823.28;6073314;28;20033;-73
2022/01/17 01:06:41;;;;;;;14.48;3.75;;;;;;;5.40;87.79;101831.19;6072773;28;20033;-74
2022/01/17 01:09:47;;;;;;;12.20;3.97;;;;;;;5.33;88.32;101837.69;6066139;28;20041;-74
2022/01/17 01:12:44;;;;;;;9.73;3.28;;;;;;;5.30;88.26;101837.84;6063489;28;20496;-74
2022/01/17 01:19:06;;;;;;;9.67;3.30;;;;;;;5.30;87.33;101819.44;6071930;28;20041;-74
2022/01/17 01:27:37;;;;;;;10.30;2.80;;;;;;;5.25;87.83;101826.75;6072136;28;20048;-74
2022/01/17 01:28:29;;;;;;;15.85;2.50;;;;;;;5.19;87.38;101837.63;6062243;28;20042;-74
2022/01/17 01:31:38;;;;;;;11.38;3.13;;;;;;;5.19;87.66;101838.44;6069064;28;20045;-74
2022/01/17 01:34:38;;;;;;;8.13;2.28;;;;;;;5.17;87.39;101826.31;6072661;28;20025;-75
2022/01/17 01:37:34;;;;;;;9.95;2.13;;;;;;;5.16;87.14;101812.34;6073308;28;20116;-74
2022/01/17 01:40:29;;;;;;;8.07;2.10;;;;;;;5.18;87.09;101820.16;6070543;28;20090;-74
2022/01/17 01:43:24;;;;;;;8.50;2.07;;;;;;;5.18;87.04;101817.50;6071758;28;20026;-74
2022/01/17 01:46:20;;;;;;;5.87;2.10;;;;;;;5.17;86.63;101815.81;6072682;28;20288;-75
2022/01/17 01:49:16;;;;;;;7.95;1.77;;;;;;;5.15;84.84;101823.78;6072471;28;20269;-75
2022/01/17 01:52:11;;;;;;;8.30;2.05;;;;;;;5.19;83.77;101816.59;6072459;28;20109;-74
2022/01/17 01:55:10;;;;;;;5.53;1.97;;;;;;;5.21;81.31;101814.72;6065832;28;20049;-74
2022/01/17 01:58:05;;;;;;;5.22;1.15;;;;;;;5.24;80.72;101859.25;6072769;28;20477;-74
2022/01/17 02:01:01;;;;;;;6.53;1.07;;;;;;;5.20;79.83;101850.69;6064327;28;20034;-74
2022/01/17 02:03:56;;;;;;;8.50;1.35;;;;;;;5.18;80.23;101870.09;6073335;28;20636;-74
2022/01/17 02:06:52;;;;;;;3.33;1.00;;;;;;;5.13;81.46;101872.13;6076688;28;20044;-74
2022/01/17 02:09:47;;;;;;;4.60;1.10;;;;;;;5.04;80.70;101865.59;6076598;28;20044;-75
2022/01/17 02:12:43;;;;;;;11.03;1.40;;;;;;;4.99;81.23;101866.75;6076402;28;20683;-74
2022/01/17 02:15:39;;;;;;;6.18;0.85;;;;;;;5.02;80.83;101861.34;6077062;28;20288;-74
2022/01/17 02:18:35;;;;;;;8.98;1.33;;;;;;;5.07;80.26;101846.16;6077060;28;20116;-74
2022/01/17 02:21:45;;;;;;;10.93;1.47;;;;;;;5.03;80.92;101865.69;6075772;28;20044;-74
2022/01/17 02:24:40;;;;;;;10.80;1.33;;;;;;;5.02;81.64;101856.94;6074309;28;20295;-75
2022/01/17 02:27:35;;;;;;;8.10;1.47;;;;;;;5.00;81.75;101842.19;6073683;28;20501;-74
2022/01/17 02:30:32;;;;;;;9.55;1.30;;;;;;;4.98;81.88;101829.09;6063515;28;20512;-74
2022/01/17 02:33:27;;;;;;;7.25;1.50;;;;;;;5.01;83.53;101822.84;6076606;28;20040;-74
2022/01/17 02:36:23;;;;;;;7.93;0.95;;;;;;;4.95;82.99;101791.63;6067706;28;20034;-74
2022/01/17 02:39:19;;;;;;;8.02;1.40;;;;;;;4.92;82.94;101773.44;6075877;28;20431;-74
2022/01/17 02:42:18;;;;;;;5.10;0.95;;;;;;;4.90;83.52;101756.88;6076150;28;20045;-74
2022/01/17 02:48:35;;;;;;;;;;;;;;;4.89;83.39;101810.38;6075633;28;20065;-75
2022/01/17 02:51:30;;;;;;;4.18;0.57;;;;;;;4.92;82.38;101828.63;6074308;28;19967;-74
2022/01/17 02:54:25;;;;;;;8.13;1.90;;;;;;;4.89;82.33;101841.91;6075549;28;20037;-74
2022/01/17 02:57:21;;;;;;;10.03;1.40;;;;;;;4.92;81.82;101812.84;6062922;28;20037;-74
2022/01/17 03:00:16;;;;;;;9.13;0.90;;;;;;;4.93;81.88;101810.13;6072192;28;20474;-74
2022/01/17 03:03:16;;;;;;;8.52;1.58;;;;;;;4.92;81.19;101818.91;6073272;28;20287;-74
2022/01/17 03:06:12;;;;;;;4.97;1.20;;;;;;;4.96;81.33;101830.97;6075179;28;20037;-74
2022/01/17 03:09:08;;;;;;;8.65;1.83;;;;;;;4.96;81.36;101811.72;6075902;28;20045;-74
2022/01/17 03:12:03;;;;;;;6.00;0.70;;;;;;;4.98;80.49;101807.22;6075441;28;20119;-74
2022/01/17 03:14:59;;;;;;;7.63;1.00;;;;;;;5.00;80.89;101779.09;6070061;28;20065;-74
2022/01/17 03:17:55;;;;;;;17.37;1.50;;;;;;;4.96;81.26;101769.69;6075874;28;20040;-74
2022/01/17 03:20:50;;;;;;;10.98;3.03;;;;;;;4.96;80.70;101764.44;6074491;28;20029;-74
2022/01/17 03:23:48;;;;;;;6.25;1.38;;;;;;;4.95;81.43;101781.13;6069950;28;20473;-73
2022/01/17 03:26:43;;;;;;;8.18;2.08;;;;;;;4.95;81.44;101776.72;6072425;28;20494;-74
2022/01/17 03:29:39;;;;;;;9.57;1.43;;;;;;;4.97;81.50;101776.66;6064889;28;20040;-73
2022/01/17 03:32:34;;;;;;;5.27;0.47;;;;;;;4.96;82.34;101738.16;6058149;28;20041;-74
2022/01/17 03:35:30;;;;;;;10.17;1.77;;;;;;;4.96;82.67;101777.56;6068825;28;20034;-74
2022/01/17 03:38:29;;;;;;;8.43;1.33;;;;;;;4.94;82.43;101761.91;6075283;28;20079;-74
2022/01/17 03:41:24;;;;;;;9.60;1.08;;;;;;;4.92;82.01;101762.91;6074433;28;20029;-74
2022/01/17 03:44:20;;;;;;;6.72;1.48;;;;;;;4.88;81.94;101759.59;6073329;28;20044;-74
2022/01/17 03:47:15;;;;;;;11.70;1.10;;;;;;;4.90;83.08;101756.88;6075253;28;20037;-74
2022/01/17 03:50:13;;;;;;;12.03;1.33;;;;;;;4.93;82.09;101759.34;6067155;28;20124;-74
2022/01/17 03:53:09;;;;;;;9.57;1.70;;;;;;;4.90;83.12;101751.63;6075195;28;20025;-74
2022/01/17 03:56:05;;;;;;;6.68;1.20;;;;;;;4.90;82.17;101746.34;6072201;28;20040;-74
2022/01/17 03:59:00;;;;;;;10.25;1.38;;;;;;;4.89;82.89;101758.69;6066270;28;20033;-73
2022/01/17 04:01:55;;;;;;;7.43;1.57;;;;;;;4.91;81.76;101753.31;6073524;28;20033;-74
2022/01/17 04:04:51;;;;;;;8.83;1.53;;;;;;;4.92;82.72;101747.16;6067791;28;20068;-74
2022/01/17 04:07:46;;;;;;;5.50;1.10;;;;;;;4.94;82.42;101740.03;6075388;28;20120;-74
2022/01/17 04:10:41;;;;;;;12.73;1.80;;;;;;;4.94;82.37;101754.00;6069397;28;20670;-74
2022/01/17 04:13:37;;;;;;;8.27;1.37;;;;;;;4.92;81.67;101749.78;6074486;28;20041;-74
2022/01/17 04:16:33;;;;;;;12.87;1.70;;;;;;;4.96;81.78;101751.28;6072622;28;20029;-74
2022/01/17 04:19:28;;;;;;;15.50;2.25;;;;;;;4.93;82.04;101748.81;6073719;28;20037;-74
2022/01/17 04:22:23;;;;;;;9.70;1.30;;;;;;;4.90;82.27;101749.84;6073304;28;20029;-73
2022/01/17 04:25:19;;;;;;;7.23;1.37;;;;;;;4.91;82.06;101761.22;6064836;28;20088;-74
2022/01/17 04:28:14;;;;;;;10.52;1.92;;;;;;;4.94;81.29;101761.03;6068817;28;20053;-74
2022/01/17 04:31:10;;;;;;;6.43;1.00;;;;;;;4.95;81.50;101770.59;6068933;28;20026;-74
2022/01/17 04:34:05;;;;;;;7.77;1.33;;;;;;;4.93;82.78;101759.34;6053660;28;20551;-75
2022/01/17 04:37:02;;;;;;;9.47;1.80;;;;;;;4.91;81.78;101763.84;6074283;28;20280;-74
2022/01/17 04:39:57;;;;;;;7.32;1.30;;;;;;;4.89;81.76;101771.81;6068629;28;20061;-74
2022/01/17 04:42:56;;;;;;;8.73;1.05;;;;;;;4.91;82.45;101761.22;6071792;28;20086;-74
2022/01/17 04:45:51;;;;;;;10.73;1.58;;;;;;;4.92;82.31;101761.09;6073867;28;20033;-74
2022/01/17 04:48:46;;;;;;;10.93;1.57;;;;;;;4.93;82.03;101764.59;6070831;28;20037;-73
2022/01/17 04:51:42;;;;;;;6.67;1.17;;;;;;;4.91;82.00;101769.09;6073621;28;20033;-73
2022/01/17 04:54:42;;;;;;;12.05;1.88;;;;;;;4.91;82.13;101769.94;6070502;28;20033;-74
2022/01/17 04:57:38;;;;;;;12.55;1.38;;;;;;;4.90;82.15;101794.50;6073240;28;20049;-75
2022/01/17 05:00:33;;;;;;;5.43;1.00;;;;;;;4.97;81.09;101776.66;6062861;28;20041;-74
2022/01/17 05:03:28;;;;;;;11.80;1.33;;;;;;;4.94;81.55;101784.69;6072786;28;20041;-74
2022/01/17 05:06:23;;;;;;;10.30;1.30;;;;;;;4.94;81.12;101775.03;6073137;28;20095;-74
2022/01/17 05:09:19;;;;;;;6.63;1.40;;;;;;;4.97;81.27;101795.03;6062806;28;20048;-74
2022/01/17 05:12:14;;;;;;;11.70;1.90;;;;;;;4.98;81.35;101789.69;6072155;28;20404;-74
2022/01/17 05:15:28;;;;;;;9.32;1.40;;;;;;;4.99;81.64;101809.78;6063253;28;20044;-74
2022/01/17 05:21:31;;;;;;;6.32;1.30;;;;;;;5.01;80.57;101801.81;6067378;28;20069;-74
2022/01/17 05:24:26;;;;;;;6.75;1.17;;;;;;;4.99;80.43;101798.44;6065798;28;20086;-73
2022/01/17 05:27:22;;;;;;;15.88;1.55;;;;;;;5.02;80.20;101803.53;6072931;28;20033;-74
2022/01/17 05:30:19;;;;;;;15.70;1.90;;;;;;;5.02;80.57;101803.53;6068502;28;20043;-73
2022/01/17 05:33:14;;;;;;;11.63;1.60;;;;;;;5.03;80.60;101778.94;6059811;28;20252;-74
2022/01/17 05:36:09;;;;;;;12.87;1.50;;;;;;;5.05;79.87;101774.44;6059831;28;20038;-74
2022/01/17 05:39:05;;;;;;;12.10;1.47;;;;;;;5.03;80.17;101778.94;6074464;28;20384;-74
2022/01/17 05:42:00;;;;;;;9.47;1.40;;;;;;;5.05;80.86;101772.66;6080476;28;20468;-74
2022/01/17 05:44:55;;;;;;;11.20;1.67;;;;;;;5.06;80.58;101791.88;6073214;28;20064;-74
2022/01/17 05:47:51;;;;;;;5.67;1.20;;;;;;;5.03;80.92;101777.13;6081429;28;20120;-73
2022/01/17 05:50:46;;;;;;;5.05;1.30;;;;;;;4.99;80.70;101798.44;6068479;28;20112;-73
2022/01/17 05:53:42;;;;;;;8.50;1.37;;;;;;;4.99;81.41;101803.69;6079309;28;20026;-74
2022/01/17 05:56:37;;;;;;;7.17;1.20;;;;;;;4.99;81.68;101782.66;6080903;28;20488;-74
2022/01/17 05:59:32;;;;;;;11.67;1.80;;;;;;;4.93;82.04;101782.97;6075743;28;20284;-74
2022/01/17 06:02:28;;;;;;;9.55;1.35;;;;;;;4.93;82.21;101793.50;6070206;28;20042;-74
2022/01/17 06:05:23;;;;;;;12.30;1.60;;;;;;;4.90;81.86;101785.78;6077036;28;20516;-74
2022/01/17 06:08:18;;;;;;;8.13;1.70;;;;;;;4.90;82.01;101767.38;6079238;28;20039;-73
2022/01/17 06:11:14;;;;;;;11.13;2.15;;;;;;;4.90;81.93;101780.53;6066263;28;20048;-74
2022/01/17 06:14:14;;;;;;;8.90;1.53;;;;;;;4.89;82.41;101779.69;6080718;28;20037;-74
2022/01/17 06:17:10;;;;;;;11.88;1.70;;;;;;;4.88;82.73;101785.03;6080820;28;20272;-74
2022/01/17 06:20:05;;;;;;;8.80;1.73;;;;;;;4.90;82.40;101796.28;6078502;28;20055;-74
2022/01/17 06:23:01;;;;;;;12.77;2.22;;;;;;;4.90;82.28;101785.78;6067202;28;20283;-74
2022/01/17 06:25:56;;;;;;;10.40;1.30;;;;;;;4.94;82.25;101774.19;6079527;28;20053;-74
2022/01/17 06:28:51;;;;;;;13.93;1.90;;;;;;;4.96;82.68;101809.09;6078858;28;20060;-74
2022/01/17 06:31:47;;;;;;;15.53;1.03;;;;;;;4.89;82.05;101784.94;6067961;28;20426;-74
2022/01/17 06:34:42;;;;;;;12.73;3.83;;;;;;;4.92;82.04;101770.78;6072763;28;20033;-74
2022/01/17 06:37:39;;;;;;;10.77;1.63;;;;;;;4.93;82.31;101756.69;6075619;28;20369;-74
2022/01/17 06:40:34;;;;;;;8.07;2.08;;;;;;;4.95;81.83;101755.69;6079240;28;20056;-74
2022/01/17 06:43:29;;;;;;;8.07;1.42;;;;;;;4.94;83.29;101759.28;6079955;28;20514;-73
2022/01/17 06:46:25;;;;;;;9.33;1.43;;;;;;;4.98;82.36;101765.19;6077599;28;20393;-74
2022/01/17 06:49:20;;;;;;;9.23;1.45;;;;;;;4.97;82.69;101784.53;6078433;28;20034;-74
2022/01/17 06:52:16;;;;;;;5.13;1.10;;;;;;;4.99;82.39;101793.16;6074306;28;20117;-74
2022/01/17 06:55:11;;;;;;;16.65;2.28;;;;;;;4.98;82.97;101791.47;6071360;28;20052;-75
2022/01/17 06:58:07;;;;;;;15.53;2.37;;;;;;;4.96;82.50;101793.34;6075952;28;20041;-74
2022/01/17 07:01:04;;;;;;;8.70;1.63;;;;;;;4.96;82.56;101817.00;6074143;28;20029;-74
2022/01/17 07:03:59;;;;;;;9.15;1.17;;;;;;;4.94;83.46;101822.34;6059059;28;20083;-74
2022/01/17 07:06:55;;;;;;;9.57;1.50;;;;;;;4.95;83.73;101821.38;6076141;28;20434;-74
2022/01/17 07:09:50;;;;;;;6.05;1.40;;;;;;;4.94;82.99;101848.63;6076564;28;20037;-74
2022/01/17 07:12:46;;;;;;;6.10;1.20;;;;;;;4.92;84.55;101849.63;6074990;28;20044;-74
2022/01/17 07:15:42;;;;;;;6.55;1.60;;;;;;;4.87;84.11;101826.22;6068096;28;20113;-74
2022/01/17 07:18:37;;;;;;;8.00;1.33;;;;;;;4.84;84.43;101809.78;6066415;28;20459;-74
2022/01/17 07:21:33;;;;;;;6.17;1.83;;;;;;;4.80;85.10;101796.81;6075758;28;20029;-74
2022/01/17 07:24:28;;;;;;;3.72;1.10;;;;;;;4.80;84.84;101780.19;6075099;28;20618;-74
2022/01/17 07:27:24;;;;;;;9.13;1.30;;;;;;;4.80;85.33;101788.06;6074632;28;20037;-74
2022/01/17 07:30:21;;;;;;;9.55;1.95;;;;;;;4.82;85.03;101789.69;6072749;28;20476;-74
2022/01/17 07:33:17;;;;;;;7.50;1.98;;;;;;;4.82;84.54;101792.31;6071832;28;20106;-74
2022/01/17 07:36:17;;;;;;;6.68;1.48;;;;;;;4.81;84.69;101785.34;6069702;28;20033;-73
2022/01/17 07:39:13;;;;;;;7.70;1.63;;;;;;;4.78;85.48;101777.63;6075157;28;20037;-73
2022/01/17 07:42:08;;;;;;;4.10;1.37;;;;;;;4.77;85.82;101751.44;6074368;28;20461;-73
2022/01/17 07:45:16;;;;;;;9.32;1.58;;;;;;;4.77;84.97;101744.41;6074729;28;20276;-73
2022/01/17 07:48:44;;;;;;;5.57;1.52;;;;;;;4.73;85.53;101779.66;6063339;28;20037;-74
2022/01/17 07:51:27;;;;;;;6.25;1.30;;;;;;;4.77;85.70;101789.09;6074214;28;20488;-74
2022/01/17 07:54:23;;;;;;;15.57;1.73;;;;;;;4.78;85.68;101759.22;6074286;28;20039;-73
2022/01/17 07:57:20;;;;;;;6.78;1.27;;;;;;;4.78;85.82;101780.25;6074367;28;20044;-74
2022/01/17 08:00:22;;;;;;;10.05;1.50;;;;;;;4.81;85.70;101766.94;6073143;28;20086;-74
2022/01/17 08:03:17;;;;;;;3.20;0.90;;;;;;;4.85;85.67;101757.13;6073637;28;20124;-74
2022/01/17 08:06:13;;;;;;;15.60;1.90;;;;;;;4.84;85.99;101799.28;6068868;28;20055;-74
2022/01/17 08:09:13;;;;;;;16.40;2.08;;;;;;;4.87;85.72;101791.19;6064091;28;20033;-74
2022/01/17 08:12:09;;;;;;;11.32;1.73;;;;;;;4.90;86.25;101819.94;6073786;28;20124;-74
2022/01/17 08:15:05;;;;;;;9.18;1.70;;;;;;;4.91;86.19;101834.78;6074195;28;20102;-74
2022/01/17 08:18:00;;;;;;;10.00;1.80;;;;;;;4.92;86.38;101813.66;6074238;28;20034;-73
2022/01/17 08:20:56;;;;;;;11.97;1.80;;;;;;;4.88;86.52;101800.78;6073772;28;20060;-73
2022/01/17 08:23:54;;;;;;;7.47;1.58;;;;;;;4.77;88.40;101804.84;6072563;28;20026;-74
2022/01/17 08:26:50;;;;;;;12.88;1.80;;;;;;;4.72;88.45;101791.13;6072684;28;20469;-74
2022/01/17 08:29:45;;;;;;;10.07;1.90;;;;;;;4.70;89.39;101797.38;6073243;28;20055;-74
2022/01/17 08:32:41;;;;;;;7.43;1.30;;;;;;;4.70;89.11;101779.81;6069816;28;20481;-73
2022/01/17 08:35:36;;;;;;;7.40;1.77;;;;;;;4.69;89.35;101775.50;6059107;28;20037;-74
2022/01/17 08:38:31;;;;;;;5.17;1.50;;;;;;;4.72;88.82;101801.63;6072572;28;20037;-74
2022/01/17 08:41:27;;;;;;;9.87;1.77;;;;;;;4.71;89.54;101817.44;6073418;28;20052;-74
2022/01/17 08:44:23;;;;;;;9.02;1.58;;;;;;;4.76;89.41;101818.91;6073339;28;20358;-75
2022/01/17 08:47:18;;;;;;;7.30;2.00;;;;;;;4.81;89.59;101806.38;6064014;28;20060;-74
2022/01/17 08:50:14;;;;;;;15.20;2.38;;;;;;;4.88;88.75;101808.66;6068703;28;20050;-74
2022/01/17 08:53:10;;;;;;;7.93;1.80;;;;;;;4.85;89.56;101814.94;6073629;28;20040;-74
2022/01/17 08:56:05;;;;;;;7.00;1.63;;;;;;;4.85;89.74;101811.47;6073162;28;20029;-74
2022/01/17 08:59:02;;;;;;;13.70;1.97;;;;;;;4.82;89.17;101808.06;6072956;28;20041;-74
2022/01/17 09:01:57;;;;;;;8.80;2.00;;;;;;;4.82;90.34;101794.94;6065319;28;20033;-74
2022/01/17 09:04:53;;;;;;;10.40;2.60;;;;;;;4.87;90.45;101799.06;6070709;28;20028;-74
2022/01/17 09:07:48;;;;;;;10.73;2.50;;;;;;;4.85;89.87;101790.44;6072930;28;20035;-74
2022/01/17 09:10:44;;;;;;;10.77;2.90;;;;;;;4.78;90.27;101798.66;6071189;28;20476;-74
2022/01/17 09:13:40;;;;;;;11.82;2.30;;;;;;;4.85;90.69;101798.31;6071522;28;20084;-74
2022/01/17 09:16:35;;;;;;;13.13;2.93;;;;;;;4.85;91.14;101817.56;6072532;28;20041;-74
2022/01/17 09:19:31;;;;;;;10.65;2.75;;;;;;;4.87;91.24;101823.59;6067516;28;20094;-74
2022/01/17 09:22:29;;;;;;;10.60;2.95;;;;;;;4.87;91.91;101804.34;6073100;28;20122;-74
2022/01/17 09:25:24;;;;;;;8.88;2.65;;;;;;;4.86;92.81;101807.91;6065722;28;20033;-74
2022/01/17 09:28:20;;;;;;;9.03;3.03;;;;;;;4.87;91.92;101825.34;6068750;28;20026;-74
2022/01/17 09:31:16;;;;;;;11.65;2.65;;;;;;;4.87;92.48;101825.34;6067788;28;20115;-74
2022/01/17 09:34:11;;;;;;;7.68;2.75;;;;;;;4.89;92.46;101831.41;6060279;28;20490;-74
2022/01/17 09:37:07;;;;;;;10.25;2.88;;;;;;;4.94;92.80;101850.41;6071202;28;20038;-74
2022/01/17 09:40:04;;;;;;;8.80;2.87;;;;;;;5.00;92.42;101827.25;6064657;28;20037;-74
2022/01/17 09:43:02;;;;;;;11.68;3.85;;;;;;;5.07;92.70;101844.41;6070514;28;20025;-74
2022/01/17 09:45:57;;;;;;;9.07;2.92;;;;;;;5.14;92.55;101845.75;6071698;28;20068;-74
2022/01/17 09:49:01;;;;;;;12.98;2.95;;;;;;;5.21;92.07;101862.03;6070172;28;20355;-74
2022/01/17 09:54:54;;;;;;;17.63;3.78;;;;;;;5.31;91.61;101829.06;6060784;28;20029;-74
2022/01/17 09:57:56;;;;;;;12.77;3.28;;;;;;;5.40;91.64;101849.59;6070576;28;20041;-74
2022/01/17 10:00:51;;;;;;;12.25;4.18;;;;;;;5.41;91.59;101851.25;6070832;28;20037;-74
2022/01/17 10:03:47;;;;;;;9.27;3.90;;;;;;;5.46;91.48;101827.34;6069253;28;20393;-74
2022/01/17 10:06:53;;;;;;;18.30;3.57;;;;;;;5.59;92.07;101837.09;6064809;28;20112;-73
2022/01/17 10:09:55;;;;;;;11.05;3.05;;;;;;;5.60;91.73;101840.59;6064999;28;20044;-74
2022/01/17 10:12:50;;;;;;;;;;;;;;;5.59;91.53;101852.88;6071905;28;20404;-74
2022/01/17 10:15:56;;;;;;;10.57;3.30;;;;;;;5.58;91.60;101834.53;6071643;28;19925;-74
2022/01/17 10:19:02;;;;;;;10.73;2.83;;;;;;;5.65;91.10;101857.81;6057355;28;20029;-74
2022/01/17 10:22:00;;;;;;;12.25;2.90;;;;;;;5.77;91.49;101836.03;6060873;28;20099;-73
2022/01/17 10:25:19;;;;;;;8.35;2.72;;;;;;;6.01;90.93;101838.25;6065292;28;20033;-73
2022/01/17 10:34:54;;;;;;;14.88;4.53;;;;;;;5.85;91.81;101828.59;6071357;28;20033;-74
2022/01/17 10:38:08;;;;;;;15.55;5.25;;;;;;;5.80;92.07;101809.56;6072130;28;20041;-74
2022/01/17 10:41:04;;;;;;;11.15;3.38;;;;;;;5.89;92.49;101827.50;6069931;28;20542;-74
2022/01/17 10:44:00;;;;;;;9.15;3.80;;;;;;;5.89;92.83;101830.13;6069993;28;20045;-74
2022/01/17 10:47:22;;;;;;;8.93;4.00;;;;;;;5.87;92.77;101850.41;6073939;28;20499;-74
2022/01/17 10:50:23;;;;;;;17.23;4.28;;;;;;;5.92;92.78;101835.19;6068704;28;20087;-74
2022/01/17 10:53:18;;;;;;;;;;;;;;;5.97;93.40;101851.59;6064617;28;20045;-74
2022/01/17 10:56:13;;;;;;;17.90;3.20;;;;;;;6.04;93.12;101859.09;6075023;28;19917;-73
2022/01/17 10:59:09;;;;;;;15.70;3.45;;;;;;;6.13;92.16;101861.22;6074545;28;20126;-74
2022/01/17 11:02:07;;;;;;;13.02;3.28;;;;;;;6.30;92.25;101853.19;6059681;28;20115;-73
2022/01/17 11:05:06;;;;;;;16.75;4.22;;;;;;;6.46;91.09;101867.16;6069503;28;20030;-74
2022/01/17 11:08:02;;;;;;;11.90;3.30;;;;;;;6.52;90.30;101859.69;6074872;28;20076;-74
2022/01/17 11:10:58;;;;;;;13.73;4.13;;;;;;;6.49;89.65;101865.19;6073329;28;20388;-74
2022/01/17 11:14:00;;;;;;;14.25;2.50;;;;;;;6.59;90.02;101881.28;6074267;28;20083;-74
2022/01/17 11:16:55;;;;;;;11.98;3.33;;;;;;;6.70;88.57;101881.47;6076514;28;20025;-74
2022/01/17 11:20:07;;;;;;;14.83;3.23;;;;;;;6.78;88.41;101849.38;6062774;28;20404;-75
2022/01/17 11:23:03;;;;;;;12.57;2.63;;;;;;;6.80;88.50;101840.44;6072900;28;20429;-74
2022/01/17 11:25:59;;;;;;;12.75;2.97;;;;;;;6.75;89.18;101845.16;6071812;28;20056;-74
2022/01/17 11:28:54;;;;;;;14.00;2.92;;;;;;;6.55;90.01;101843.72;6063426;28;20045;-73
2022/01/17 11:31:50;;;;;;;14.03;2.90;;;;;;;6.43;91.38;101856.78;6074322;28;20053;-74
2022/01/17 11:34:45;;;;;;;16.17;2.77;;;;;;;6.43;91.14;101888.41;6073803;28;20666;-74
2022/01/17 11:37:45;;;;;;;11.97;2.67;;;;;;;6.47;90.86;101889.91;6069479;28;20477;-74
2022/01/17 11:40:42;;;;;;;15.95;2.92;;;;;;;6.48;91.06;101881.91;6072729;28;20099;-74
2022/01/17 11:43:37;;;;;;;10.23;3.00;;;;;;;6.38;91.35;101886.03;6073244;28;20060;-73
2022/01/17 11:46:45;;;;;;;8.30;2.90;;;;;;;6.36;91.90;101887.91;6063487;28;20108;-73
2022/01/17 11:49:40;;;;;;;14.10;2.60;;;;;;;6.31;92.66;101904.91;6073080;28;20291;-72
2022/01/17 11:52:36;;;;;;;9.37;2.30;;;;;;;6.24;93.36;101895.69;6064293;28;20500;-72
2022/01/17 11:58:46;;;;;;;10.35;3.03;;;;;;;6.20;93.21;101934.50;6070228;28;20045;-72
2022/01/17 12:01:42;;;;;;;11.73;3.38;;;;;;;6.13;94.90;101921.78;6073935;28;20076;-72
2022/01/17 12:04:37;;;;;;;18.73;4.63;;;;;;;6.11;94.19;101900.81;6073689;28;20029;-71
2022/01/17 12:07:40;;;;;;;17.88;4.72;;;;;;;6.14;95.05;101898.00;6063463;28;20420;-71
2022/01/17 12:10:44;;;;;;;12.43;3.90;;;;;;;6.14;94.76;101897.16;6062321;28;20048;-72
2022/01/17 12:13:44;;;;;;;16.30;4.90;;;;;;;6.13;94.71;101906.84;6070650;28;20538;-72
2022/01/17 12:16:39;;;;;;;18.50;4.63;;;;;;;6.09;95.26;101899.22;6067250;28;20037;-71
2022/01/17 12:19:34;;;;;;;10.13;3.60;;;;;;;6.16;95.23;101906.66;6065073;28;20061;-71
2022/01/17 12:22:55;;;;;;;13.33;2.90;;;;;;;6.18;95.79;101935.53;6065368;28;20037;-71
2022/01/17 12:25:50;;;;;;;11.68;3.00;;;;;;;6.17;95.75;101939.13;6071928;28;20025;-72
2022/01/17 12:28:54;;;;;;;10.98;3.03;;;;;;;6.17;94.72;101960.19;6071493;28;20044;-71
2022/01/17 12:31:49;;;;;;;9.45;2.42;;;;;;;6.12;96.06;101967.47;6064928;28;20459;-71
2022/01/17 12:34:44;;;;;;;12.20;2.80;;;;;;;6.13;95.95;101984.97;6066753;28;20044;-72
2022/01/17 12:37:44;;;;;;;8.73;2.20;;;;;;;6.11;96.25;101987.72;6066996;28;20026;-72
2022/01/17 12:40:42;;;;;;;13.70;2.40;;;;;;;6.05;95.86;101979.28;6065135;28;20033;-73
2022/01/17 12:43:37;;;;;;;6.80;1.85;;;;;;;6.03;96.19;101963.59;6056726;28;20468;-72
2022/01/17 12:46:33;;;;;;;14.50;1.63;;;;;;;6.06;95.31;101941.50;6067600;28;20064;-72
2022/01/17 12:49:31;;;;;;;10.43;2.00;;;;;;;6.09;95.31;101954.50;6070146;28;20029;-73
2022/01/17 12:52:26;;;;;;;9.20;1.90;;;;;;;6.03;95.01;101945.16;6067480;28;20469;-73
2022/01/17 12:55:23;;;;;;;9.10;2.05;;;;;;;6.17;94.34;101937.31;6067304;28;20022;-72
2022/01/17 12:58:28;;;;;;;9.10;2.25;;;;;;;6.26;94.45;101938.56;6070720;28;20124;-73
2022/01/17 13:01:24;;;;;;;8.73;1.60;;;;;;;6.34;93.77;101960.03;6072580;28;20033;-72
2022/01/17 13:04:19;;;;;;;13.02;1.50;;;;;;;6.44;93.34;101963.88;6072620;28;20041;-73
2022/01/17 13:07:15;;;;;;;10.63;1.60;;;;;;;6.57;92.10;101970.13;6070618;28;20037;-73
2022/01/17 13:10:11;;;;;;;12.03;1.70;;;;;;;6.67;89.82;101971.28;6061026;28;20453;-73
2022/01/17 13:13:06;;;;;;;6.05;1.80;;;;;;;6.87;90.43;101963.03;6069236;28;20030;-73
2022/01/17 13:16:07;;;;;;;13.18;1.20;;;;;;;6.94;88.77;101947.69;6072422;28;21582;-73
2022/01/17 13:19:05;;;;;;;12.30;2.13;;;;;;;6.79;88.85;101967.94;6070338;28;20030;-73
2022/01/17 13:22:00;;;;;;;8.30;1.75;;;;;;;6.76;88.62;101991.81;6062211;28;20067;-73
2022/01/17 13:25:03;;;;;;;15.07;2.87;;;;;;;6.88;88.94;101982.31;6070736;28;20095;-74
2022/01/17 13:28:03;;;;;;;11.27;1.65;;;;;;;6.91;87.81;101980.34;6071035;28;20079;-74
2022/01/17 13:30:58;;;;;;;9.02;1.85;;;;;;;6.95;87.38;101995.06;6065133;28;20400;-74
2022/01/17 13:33:54;;;;;;;9.43;1.70;;;;;;;6.87;88.02;102001.75;6061475;28;20061;-74
2022/01/17 13:36:53;;;;;;;14.35;1.40;;;;;;;6.59;84.46;102005.13;6071443;28;20431;-74
2022/01/17 13:39:48;;;;;;;7.65;1.23;;;;;;;6.53;85.67;102003.69;6067610;28;20048;-74
2022/01/17 13:42:46;;;;;;;6.13;1.23;;;;;;;6.38;86.15;102024.81;6072102;28;20037;-74
2022/01/17 13:45:44;;;;;;;12.23;2.17;;;;;;;6.35;88.16;102022.34;6071343;28;20037;-75
2022/01/17 13:48:40;;;;;;;7.40;1.55;;;;;;;6.34;88.25;102031.16;6070580;28;20108;-74
2022/01/17 13:51:35;;;;;;;9.40;1.50;;;;;;;6.42;86.59;102036.84;6071717;28;20033;-75
2022/01/17 13:54:40;;;;;;;11.10;1.65;;;;;;;6.49;86.81;102040.84;6065983;28;20021;-75
2022/01/17 13:57:35;;;;;;;13.25;2.10;;;;;;;6.50;86.93;102048.66;6067804;28;20029;-76
2022/01/17 14:00:32;;;;;;;11.77;1.87;;;;;;;6.50;86.57;102050.44;6070466;28;20531;-76
2022/01/17 14:03:29;;;;;;;13.73;1.65;;;;;;;6.49;86.11;102046.13;6076296;28;20034;-75
2022/01/17 14:06:27;;;;;;;10.73;1.83;;;;;;;6.44;86.22;102061.34;6065525;28;20037;-76
2022/01/17 14:09:32;;;;;;;12.18;1.88;;;;;;;6.44;86.27;102077.16;6071016;28;20045;-75
2022/01/17 14:12:28;;;;;;;11.15;1.85;;;;;;;6.41;86.21;102079.97;6075143;28;20030;-75
2022/01/17 14:15:28;;;;;;;5.97;1.10;;;;;;;6.26;84.80;102086.06;6068025;28;20036;-76